Terminal Aerodrome Forecast
Issued by NWS Tulsa, OK

Home | Current Version | Previous Version | Text Only | Print | Product List | Glossary On
Versions: 1 2 3 4 5 6 7 8 9 10 11 12 13 14 15 16 17 18 19
000
FTUS44 KTSA 271200 AAA
TAFTUL
TAF AMD
KTUL 271245Z 2713/2812 36009KT P6SM BKN014 OVC150
     FM271400 02012G20KT P6SM BKN014 OVC070
     FM271700 02012KT P6SM SCT015 BKN100
     FM280100 VRB03KT P6SM BKN150
     FM280600 16007KT P6SM BKN250=

USA.gov is the U.S. government's official web portal to all federal, state and local government web resources and services.